createdAt,value
2022-09-03T00:00:42.634Z,15.32
2022-09-03T00:03:20.216Z,16.65
2022-09-03T00:06:00.735Z,14.82
2022-09-03T00:08:34.993Z,15.05
2022-09-03T00:11:07.414Z,15.07
2022-09-03T00:13:51.094Z,15.85
2022-09-03T00:16:24.021Z,14.93
2022-09-03T00:18:58.101Z,14.93
2022-09-03T00:21:36.574Z,14.13
2022-09-03T00:24:14.255Z,16.23
2022-09-03T00:26:51.834Z,16.58
2022-09-03T00:29:27.345Z,15.40
2022-09-03T00:32:03.558Z,15.50
2022-09-03T00:34:36.369Z,15.45
2022-09-03T00:37:08.042Z,15.25
2022-09-03T00:39:46.592Z,14.93
2022-09-03T00:42:34.030Z,16.48
2022-09-03T00:45:08.219Z,17.45
2022-09-03T00:47:42.305Z,16.38
2022-09-03T00:50:17.421Z,15.95
2022-09-03T00:52:58.074Z,17.08
2022-09-03T00:55:36.320Z,16.77
2022-09-03T00:58:22.662Z,17.48
2022-09-03T01:00:57.336Z,17.00
2022-09-03T01:03:35.113Z,16.58
2022-09-03T01:06:13.141Z,17.23
2022-09-03T01:08:57.854Z,17.70
2022-09-03T01:11:35.180Z,17.08
2022-09-03T01:14:18.721Z,16.77
2022-09-03T01:16:56.558Z,17.67
2022-09-03T01:19:59.489Z,16.55
2022-09-03T01:22:47.380Z,16.08
2022-09-03T01:25:25.749Z,17.48
2022-09-03T01:28:13.627Z,17.23
2022-09-03T01:30:49.307Z,18.65
2022-09-03T01:33:28.017Z,17.05
2022-09-03T01:36:09.426Z,17.75
2022-09-03T01:38:51.650Z,16.33
2022-09-03T01:41:45.882Z,17.17
2022-09-03T01:44:26.582Z,17.55
2022-09-03T01:47:13.245Z,18.52
2022-09-03T01:49:50.102Z,17.38
2022-09-03T01:52:24.723Z,17.48
2022-09-03T01:55:03.681Z,16.25
2022-09-03T01:57:55.540Z,18.50
2022-09-03T02:00:32.553Z,17.55
2022-09-03T02:03:08.633Z,17.63
2022-09-03T02:05:39.227Z,16.67
2022-09-03T02:08:13.300Z,18.23
2022-09-03T02:10:48.595Z,17.05
2022-09-03T02:13:23.779Z,17.88
2022-09-03T02:15:58.762Z,18.33
2022-09-03T02:18:32.142Z,18.88
2022-09-03T02:21:05.324Z,19.50
2022-09-03T02:23:34.666Z,20.13
2022-09-03T02:26:09.936Z,18.60
2022-09-03T02:28:47.914Z,19.92
2022-09-03T02:31:19.783Z,21.38
2022-09-03T02:33:55.641Z,20.48
2022-09-03T02:36:28.261Z,20.42
2022-09-03T02:39:03.756Z,19.45
2022-09-03T02:41:33.835Z,22.05
2022-09-03T02:44:04.917Z,21.60
2022-09-03T02:46:50.111Z,22.45
2022-09-03T02:49:20.167Z,23.67
2022-09-03T02:51:51.739Z,24.45
2022-09-03T02:54:32.935Z,24.27
2022-09-03T02:57:11.652Z,24.27
2022-09-03T02:59:48.497Z,24.40
2022-09-03T03:02:20.689Z,23.67
2022-09-03T03:07:22.785Z,25.35
2022-09-03T03:09:52.105Z,26.40
2022-09-03T03:12:22.264Z,25.83
2022-09-03T03:14:51.694Z,25.88
2022-09-03T03:17:29.584Z,25.33
2022-09-03T03:20:01.219Z,24.30
2022-09-03T03:22:38.703Z,25.17
2022-09-03T03:25:12.198Z,23.67
2022-09-03T03:27:46.473Z,23.92
2022-09-03T03:30:21.613Z,26.30
2022-09-03T03:32:59.696Z,23.60
2022-09-03T03:35:29.420Z,24.27
2022-09-03T03:38:07.561Z,24.55
2022-09-03T03:40:49.112Z,25.70
2022-09-03T03:43:20.753Z,25.35
2022-09-03T03:46:02.835Z,22.67
2022-09-03T03:48:34.269Z,25.67
2022-09-03T03:51:15.348Z,26.73
2022-09-03T03:53:45.192Z,27.15
2022-09-03T03:56:22.228Z,27.40
2022-09-03T03:58:57.435Z,26.65
2022-09-03T04:04:20.222Z,27.13
2022-09-03T04:06:57.026Z,27.30
2022-09-03T04:09:26.528Z,27.42
2022-09-03T04:11:58.299Z,27.35
2022-09-03T04:14:28.215Z,27.80
2022-09-03T04:16:58.655Z,28.65
2022-09-03T04:19:30.626Z,26.67
2022-09-03T04:24:30.066Z,25.20
2022-09-03T04:27:03.772Z,27.48
2022-09-03T04:29:35.991Z,25.83
2022-09-03T04:32:22.336Z,22.95
2022-09-03T04:34:57.793Z,23.30
2022-09-03T04:37:27.253Z,24.60
2022-09-03T04:39:57.453Z,26.38
2022-09-03T04:42:38.517Z,26.73
2022-09-03T04:45:14.869Z,26.73
2022-09-03T04:47:48.819Z,28.38
2022-09-03T04:50:19.849Z,28.98
2022-09-03T04:52:51.776Z,29.15
2022-09-03T04:55:21.000Z,31.40
2022-09-03T04:57:50.950Z,29.38
2022-09-03T05:00:24.083Z,27.35
2022-09-03T05:02:59.208Z,27.70
2022-09-03T05:05:33.556Z,28.60
2022-09-03T05:08:06.044Z,28.48
2022-09-03T05:10:35.823Z,27.40
2022-09-03T05:13:06.382Z,29.27
2022-09-03T05:15:38.527Z,28.35
2022-09-03T05:20:43.460Z,28.98
2022-09-03T05:23:14.931Z,30.25
2022-09-03T05:25:45.057Z,30.05
2022-09-03T05:28:17.750Z,28.88
2022-09-03T05:30:46.834Z,31.73
2022-09-03T05:33:19.923Z,33.00
2022-09-03T05:35:57.283Z,31.08
2022-09-03T05:38:39.313Z,31.98
2022-09-03T05:41:16.069Z,30.83
2022-09-03T05:43:46.424Z,30.05
2022-09-03T05:46:35.008Z,28.27
2022-09-03T05:49:09.598Z,27.33
2022-09-03T05:51:50.801Z,26.98
2022-09-03T05:54:22.507Z,27.02
2022-09-03T05:56:52.285Z,28.80
2022-09-03T05:59:24.503Z,27.85
2022-09-03T06:02:03.584Z,27.60
2022-09-03T06:04:35.601Z,26.95
2022-09-03T06:07:11.850Z,30.25
2022-09-03T06:10:06.837Z,27.55
2022-09-03T06:12:44.949Z,29.45
2022-09-03T06:15:19.591Z,28.52
2022-09-03T06:17:51.148Z,26.83
2022-09-03T06:20:22.193Z,29.95
2022-09-03T06:22:53.871Z,29.35
2022-09-03T06:25:26.317Z,28.38
2022-09-03T06:30:27.954Z,27.90
2022-09-03T06:33:14.034Z,27.42
2022-09-03T06:35:44.526Z,26.02
2022-09-03T06:38:29.243Z,27.23
2022-09-03T06:41:06.982Z,26.40
2022-09-03T06:43:42.506Z,24.75
2022-09-03T06:46:20.319Z,23.55
2022-09-03T06:48:51.096Z,23.52
2022-09-03T06:51:29.196Z,22.20
2022-09-03T06:54:04.139Z,22.80
2022-09-03T06:56:40.275Z,21.48
2022-09-03T06:59:10.982Z,19.95
2022-09-03T07:01:45.615Z,19.75
2022-09-03T07:04:25.144Z,18.10
2022-09-03T07:06:58.032Z,19.50
2022-09-03T07:09:36.440Z,18.30
2022-09-03T07:12:11.275Z,17.77
2022-09-03T07:14:44.838Z,17.25
2022-09-03T07:17:16.548Z,16.23
2022-09-03T07:19:49.996Z,16.95
2022-09-03T07:22:21.340Z,15.60
2022-09-03T07:24:55.013Z,15.15
2022-09-03T07:27:27.647Z,14.93
2022-09-03T07:29:57.239Z,14.18
2022-09-03T07:32:26.437Z,12.48
2022-09-03T07:34:58.848Z,12.88
2022-09-03T07:37:28.118Z,12.57
2022-09-03T07:40:00.650Z,10.07
2022-09-03T07:42:31.277Z,9.43
2022-09-03T07:45:03.837Z,9.07
2022-09-03T07:47:34.758Z,9.27
2022-09-03T07:50:05.155Z,9.27
2022-09-03T07:52:37.165Z,8.80
2022-09-03T07:55:09.695Z,8.48
2022-09-03T07:57:41.604Z,9.38
2022-09-03T08:00:18.336Z,9.43
2022-09-03T08:02:47.829Z,8.88
2022-09-03T08:05:20.713Z,9.00
2022-09-03T08:07:55.224Z,9.50
2022-09-03T08:10:28.665Z,9.02
2022-09-03T08:12:59.902Z,9.43
2022-09-03T08:15:35.363Z,9.88
2022-09-03T08:18:06.339Z,9.48
2022-09-03T08:20:40.328Z,9.48
2022-09-03T08:23:10.235Z,7.97
2022-09-03T08:25:40.905Z,7.47
2022-09-03T08:28:13.167Z,8.77
2022-09-03T08:30:43.434Z,8.68
2022-09-03T08:33:12.589Z,8.95
2022-09-03T08:35:41.914Z,8.98
2022-09-03T08:38:13.969Z,8.23
2022-09-03T08:43:19.164Z,7.78
2022-09-03T08:45:51.848Z,8.07
2022-09-03T08:48:26.862Z,8.73
2022-09-03T08:51:00.031Z,8.15
2022-09-03T08:53:32.638Z,8.23
2022-09-03T08:56:06.742Z,9.40
2022-09-03T08:58:39.412Z,7.45
2022-09-03T09:01:15.091Z,8.65
2022-09-03T09:03:45.917Z,6.80
2022-09-03T09:06:21.834Z,7.90
2022-09-03T09:08:56.557Z,7.65
2022-09-03T09:11:34.365Z,7.40
2022-09-03T09:14:19.209Z,6.32
2022-09-03T09:16:53.025Z,6.82
2022-09-03T09:19:38.780Z,8.20
2022-09-03T09:22:12.438Z,6.25
2022-09-03T09:24:50.068Z,7.35
2022-09-03T09:27:19.444Z,7.47
2022-09-03T09:29:52.333Z,7.50
2022-09-03T09:32:22.981Z,5.45
2022-09-03T09:34:53.509Z,5.20
2022-09-03T09:37:23.775Z,5.22
2022-09-03T09:40:01.309Z,5.47
2022-09-03T09:42:37.116Z,6.63
2022-09-03T09:45:16.638Z,7.03
2022-09-03T09:47:50.285Z,5.50
2022-09-03T09:50:25.038Z,6.38
2022-09-03T09:53:17.145Z,5.00
2022-09-03T09:55:55.198Z,5.18
2022-09-03T09:58:25.887Z,4.63
2022-09-03T10:01:05.147Z,4.30
2022-09-03T10:03:36.155Z,4.13
2022-09-03T10:06:27.281Z,3.97
2022-09-03T10:09:07.785Z,4.28
2022-09-03T10:11:47.460Z,4.97
2022-09-03T10:14:21.612Z,5.50
2022-09-03T10:17:00.873Z,5.18
2022-09-03T10:19:37.372Z,4.68
2022-09-03T10:22:11.441Z,4.85
2022-09-03T10:24:54.264Z,5.45
2022-09-03T10:27:24.167Z,5.40
2022-09-03T10:29:54.235Z,5.03
2022-09-03T10:32:58.203Z,5.45
2022-09-03T10:35:31.390Z,5.85
2022-09-03T10:38:10.783Z,5.22
2022-09-03T10:40:42.410Z,5.55
2022-09-03T10:43:20.632Z,4.75
2022-09-03T10:45:59.452Z,4.90
2022-09-03T10:48:45.931Z,5.07
2022-09-03T10:51:20.471Z,3.65
2022-09-03T10:53:57.390Z,2.67
2022-09-03T10:56:30.235Z,2.85
2022-09-03T10:59:06.915Z,3.55
2022-09-03T11:01:40.170Z,4.47
2022-09-03T11:04:20.702Z,3.40
2022-09-03T11:06:56.904Z,2.80
2022-09-03T11:09:31.349Z,2.38
2022-09-03T11:12:02.784Z,2.47
2022-09-03T11:14:47.768Z,2.65
2022-09-03T11:17:20.068Z,2.50
2022-09-03T11:20:14.475Z,2.88
2022-09-03T11:22:49.731Z,3.50
2022-09-03T11:25:24.445Z,4.97
2022-09-03T11:28:00.572Z,3.20
2022-09-03T11:30:35.259Z,2.20
2022-09-03T11:33:09.467Z,2.53
2022-09-03T11:35:47.765Z,2.60
2022-09-03T11:38:25.627Z,2.40
2022-09-03T11:41:04.749Z,2.67
2022-09-03T11:43:35.593Z,2.75
2022-09-03T11:46:12.237Z,3.13
2022-09-03T11:48:46.905Z,2.92
2022-09-03T11:51:32.436Z,2.40
2022-09-03T11:56:36.294Z,2.40
2022-09-03T11:59:20.652Z,2.17
2022-09-03T12:01:53.487Z,2.47
2022-09-03T12:04:25.339Z,2.80
2022-09-03T12:07:17.669Z,1.80
2022-09-03T12:10:05.009Z,1.77
2022-09-03T12:15:19.379Z,3.10
2022-09-03T12:18:10.981Z,1.98
2022-09-03T12:20:44.840Z,2.25
2022-09-03T12:23:31.183Z,2.25
2022-09-03T12:26:04.427Z,3.20
2022-09-03T12:28:40.689Z,2.78
2022-09-03T12:31:24.974Z,2.70
2022-09-03T12:34:00.352Z,2.20
2022-09-03T12:36:41.218Z,2.00
2022-09-03T12:39:19.327Z,1.98
2022-09-03T12:41:59.612Z,2.75
2022-09-03T12:44:33.728Z,2.85
2022-09-03T12:50:09.402Z,2.03
2022-09-03T12:52:49.092Z,1.63
2022-09-03T12:55:40.859Z,2.40
2022-09-03T12:58:17.075Z,2.00
2022-09-03T13:00:50.009Z,2.28
2022-09-03T13:03:23.234Z,2.20
2022-09-03T13:05:56.947Z,1.90
2022-09-03T13:08:28.956Z,2.00
2022-09-03T13:11:01.108Z,3.67
2022-09-03T13:13:37.225Z,2.15
2022-09-03T13:16:26.890Z,1.80
2022-09-03T13:19:04.632Z,1.80
2022-09-03T13:21:38.876Z,1.77
2022-09-03T13:24:18.973Z,2.20
2022-09-03T13:27:02.150Z,1.95
2022-09-03T13:29:54.215Z,1.92
2022-09-03T13:32:31.618Z,1.77
2022-09-03T13:35:08.153Z,2.38
2022-09-03T13:37:48.231Z,1.73
2022-09-03T13:40:25.680Z,2.15
2022-09-03T13:42:59.196Z,2.05
2022-09-03T13:45:34.273Z,2.10
2022-09-03T13:48:26.558Z,1.98
2022-09-03T13:51:19.503Z,1.95
2022-09-03T13:54:11.947Z,1.85
2022-09-03T13:56:56.288Z,2.35
2022-09-03T13:59:38.884Z,2.47
2022-09-03T14:02:26.997Z,2.60
2022-09-03T14:05:10.190Z,2.25
2022-09-03T14:07:57.464Z,2.40
2022-09-03T14:10:29.960Z,2.78
2022-09-03T14:13:08.573Z,2.90
2022-09-03T14:15:48.839Z,2.80
2022-09-03T14:18:30.733Z,2.58
2022-09-03T14:21:07.004Z,2.97
2022-09-03T14:23:49.335Z,2.90
2022-09-03T14:26:38.195Z,2.90
2022-09-03T14:29:26.225Z,2.78
2022-09-03T14:32:04.188Z,4.30
2022-09-03T14:34:57.947Z,3.22
2022-09-03T14:37:52.623Z,3.80
2022-09-03T14:40:31.120Z,2.97
2022-09-03T14:43:17.203Z,3.10
2022-09-03T14:46:06.191Z,2.90
2022-09-03T14:48:46.377Z,2.47
2022-09-03T14:51:28.774Z,2.58
2022-09-03T14:54:17.548Z,2.60
2022-09-03T14:56:53.600Z,2.65
2022-09-03T14:59:43.656Z,2.75
2022-09-03T15:02:39.317Z,2.20
2022-09-03T15:05:13.172Z,2.50
2022-09-03T15:07:46.022Z,2.70
2022-09-03T15:10:22.056Z,2.20
2022-09-03T15:12:58.297Z,2.55
2022-09-03T15:15:32.498Z,2.83
2022-09-03T15:18:22.156Z,3.28
2022-09-03T15:20:55.518Z,3.08
2022-09-03T15:23:56.158Z,2.75
2022-09-03T15:26:46.604Z,2.88
2022-09-03T15:29:40.445Z,2.50
2022-09-03T15:32:17.307Z,2.67
2022-09-03T15:34:57.501Z,2.70
2022-09-03T15:37:32.573Z,2.33
2022-09-03T15:40:04.767Z,3.47
2022-09-03T15:42:34.075Z,3.03
2022-09-03T15:45:12.206Z,4.40
2022-09-03T15:47:51.962Z,3.47
2022-09-03T15:50:35.851Z,4.03
2022-09-03T15:53:15.871Z,4.90
2022-09-03T15:55:46.990Z,3.10
2022-09-03T15:58:40.538Z,3.40
2022-09-03T16:01:22.763Z,3.42
2022-09-03T16:04:15.828Z,4.45
2022-09-03T16:06:52.664Z,4.28
2022-09-03T16:09:32.451Z,4.15
2022-09-03T16:12:21.403Z,4.00
2022-09-03T16:15:00.429Z,4.63
2022-09-03T16:17:35.014Z,3.75
2022-09-03T16:20:08.406Z,3.83
2022-09-03T16:22:45.789Z,3.92
2022-09-03T16:25:25.530Z,3.67
2022-09-03T16:28:07.662Z,3.60
2022-09-03T16:30:52.136Z,4.13
2022-09-03T16:33:29.110Z,3.97
2022-09-03T16:36:06.470Z,4.63
2022-09-03T16:38:53.525Z,3.40
2022-09-03T16:41:32.211Z,5.75
2022-09-03T16:44:06.439Z,4.72
2022-09-03T16:46:46.250Z,4.93
2022-09-03T16:49:38.017Z,4.22
2022-09-03T16:52:14.917Z,5.22
2022-09-03T16:54:57.291Z,5.18
2022-09-03T16:57:32.785Z,3.90
2022-09-03T17:00:05.320Z,4.50
2022-09-03T17:02:47.850Z,4.97
2022-09-03T17:05:39.257Z,4.65
2022-09-03T17:08:18.758Z,4.55
2022-09-03T17:10:51.287Z,3.95
2022-09-03T17:13:37.418Z,4.35
2022-09-03T17:16:24.495Z,4.20
2022-09-03T17:18:56.866Z,3.95
2022-09-03T17:21:38.727Z,4.88
2022-09-03T17:24:18.661Z,4.15
2022-09-03T17:26:56.327Z,3.90
2022-09-03T17:29:44.629Z,3.63
2022-09-03T17:32:30.451Z,4.00
2022-09-03T17:35:06.833Z,3.60
2022-09-03T17:37:44.742Z,3.97
2022-09-03T17:40:20.413Z,4.43
2022-09-03T17:42:57.470Z,4.20
2022-09-03T17:45:35.423Z,4.97
2022-09-03T17:48:13.092Z,4.18
2022-09-03T17:50:55.824Z,4.78
2022-09-03T17:53:39.894Z,4.57
2022-09-03T17:56:27.383Z,5.45
2022-09-03T17:59:09.784Z,5.22
2022-09-03T18:01:40.710Z,4.35
2022-09-03T18:04:23.146Z,5.07
2022-09-03T18:06:57.629Z,5.18
2022-09-03T18:09:35.906Z,5.60
2022-09-03T18:12:11.210Z,5.28
2022-09-03T18:14:47.312Z,5.03
2022-09-03T18:17:29.782Z,5.03
2022-09-03T18:20:28.234Z,5.57
2022-09-03T18:23:20.045Z,5.25
2022-09-03T18:26:10.082Z,5.60
2022-09-03T18:28:58.673Z,5.85
2022-09-03T18:31:51.308Z,5.68
2022-09-03T18:34:49.314Z,5.88
2022-09-03T18:37:38.447Z,6.05
2022-09-03T18:40:30.176Z,6.13
2022-09-03T18:43:30.099Z,6.00
2022-09-03T18:47:47.717Z,6.60
2022-09-03T18:49:37.809Z,6.18
2022-09-03T18:52:30.500Z,5.35
2022-09-03T18:55:24.306Z,5.63
2022-09-03T18:58:16.806Z,5.85
2022-09-03T19:01:12.352Z,5.28
2022-09-03T19:04:03.750Z,5.80
2022-09-03T19:06:55.762Z,6.28
2022-09-03T19:09:53.025Z,7.00
2022-09-03T19:12:59.088Z,8.38
2022-09-03T19:15:51.300Z,7.53
2022-09-03T19:18:50.895Z,7.03
2022-09-03T19:21:42.306Z,7.60
2022-09-03T19:24:34.579Z,8.40
2022-09-03T19:27:51.737Z,8.30
2022-09-03T19:30:39.279Z,8.20
2022-09-03T19:33:37.627Z,7.80
2022-09-03T19:36:33.248Z,8.75
2022-09-03T19:39:30.617Z,7.97
2022-09-03T19:42:23.215Z,7.47
2022-09-03T19:45:21.028Z,8.18
2022-09-03T19:48:21.604Z,7.85
2022-09-03T19:51:17.688Z,7.18
2022-09-03T19:54:08.979Z,8.45
2022-09-03T19:56:57.040Z,9.77
2022-09-03T20:00:08.380Z,9.75
2022-09-03T20:03:01.448Z,10.82
2022-09-03T20:05:48.436Z,8.90
2022-09-03T20:08:41.918Z,8.75
2022-09-03T20:11:20.077Z,7.97
2022-09-03T20:14:07.882Z,7.05
2022-09-03T20:16:41.447Z,8.50
2022-09-03T20:19:19.305Z,7.97
2022-09-03T20:21:55.618Z,7.45
2022-09-03T20:24:40.628Z,7.10
2022-09-03T20:27:18.962Z,7.45
2022-09-03T20:30:01.715Z,6.95
2022-09-03T20:33:03.578Z,7.78
2022-09-03T20:35:40.663Z,7.03
2022-09-03T20:38:20.019Z,7.03
2022-09-03T20:40:59.598Z,7.07
2022-09-03T20:43:40.523Z,7.03
2022-09-03T20:46:26.454Z,7.13
2022-09-03T20:49:11.481Z,6.90
2022-09-03T20:51:57.331Z,6.93
2022-09-03T20:54:32.781Z,6.10
2022-09-03T20:57:11.530Z,6.57
2022-09-03T20:59:48.712Z,6.85
2022-09-03T21:02:26.090Z,7.30
2022-09-03T21:05:06.854Z,7.75
2022-09-03T21:07:43.539Z,6.40
2022-09-03T21:10:17.204Z,6.97
2022-09-03T21:12:56.093Z,6.80
2022-09-03T21:15:30.595Z,7.68
2022-09-03T21:18:09.859Z,7.47
2022-09-03T21:20:48.033Z,7.20
2022-09-03T21:23:21.478Z,6.88
2022-09-03T21:25:54.581Z,7.13
2022-09-03T21:28:28.918Z,6.97
2022-09-03T21:31:05.844Z,7.18
2022-09-03T21:33:42.225Z,8.02
2022-09-03T21:36:17.685Z,7.30
2022-09-03T21:38:58.441Z,8.35
2022-09-03T21:41:31.443Z,7.38
2022-09-03T21:44:05.438Z,7.22
2022-09-03T21:46:42.035Z,8.05
2022-09-03T21:49:14.041Z,8.18
2022-09-03T21:52:03.383Z,7.43
2022-09-03T21:54:34.865Z,8.57
2022-09-03T21:57:26.301Z,7.63
2022-09-03T22:00:07.660Z,8.30
2022-09-03T22:02:45.103Z,8.27
2022-09-03T22:05:15.333Z,8.90
2022-09-03T22:07:56.628Z,8.13
2022-09-03T22:10:32.968Z,8.50
2022-09-03T22:13:15.967Z,8.00
2022-09-03T22:15:51.905Z,9.02
2022-09-03T22:18:28.818Z,9.55
2022-09-03T22:21:11.577Z,8.23
2022-09-03T22:23:49.222Z,7.40
2022-09-03T22:26:26.955Z,9.23
2022-09-03T22:29:06.948Z,8.90
2022-09-03T22:31:51.006Z,9.38
2022-09-03T22:34:46.782Z,9.00
2022-09-03T22:37:19.542Z,9.00
2022-09-03T22:39:51.579Z,10.13
2022-09-03T22:42:29.904Z,8.13
2022-09-03T22:45:17.875Z,8.32
2022-09-03T22:47:51.543Z,8.05
2022-09-03T22:50:25.121Z,8.43
2022-09-03T22:53:01.728Z,8.27
2022-09-03T22:55:32.355Z,9.73
2022-09-03T22:58:04.974Z,8.07
2022-09-03T23:00:54.047Z,8.80
2022-09-03T23:03:30.120Z,9.25
2022-09-03T23:06:08.983Z,8.25
2022-09-03T23:08:42.227Z,8.40
2022-09-03T23:11:26.059Z,8.80
2022-09-03T23:14:04.847Z,7.68
2022-09-03T23:16:39.165Z,8.63
2022-09-03T23:21:53.364Z,8.82
2022-09-03T23:24:34.065Z,9.30
2022-09-03T23:27:06.425Z,9.43
2022-09-03T23:32:09.415Z,8.75
2022-09-03T23:34:40.957Z,9.40
2022-09-03T23:37:33.468Z,9.40
2022-09-03T23:40:30.543Z,9.02
2022-09-03T23:43:12.731Z,9.32
2022-09-03T23:45:52.674Z,9.20
2022-09-03T23:48:30.275Z,8.90
2022-09-03T23:51:06.423Z,9.35
2022-09-03T23:53:47.052Z,9.38
2022-09-03T23:56:25.704Z,8.43
2022-09-03T23:59:00.179Z,8.98
